Time;durP1;ratioP1;P1;durP2;ratioP2;P2;SDS_P1;SDS_P2;PMS_P1;PMS_P2;Temp;Humidity;BMP_temperature;BMP_pressure;BME280_temperature;BME280_humidity;BME280_pressure;Samples;Min_cycle;Max_cycle;Signal;HPM_P1;HPM_P2
2021/12/08 00:00:51;;;;;;;4.35;1.83;;;3.10;81.80;;;-151.14;100.00;62537.16;4105415;34;19985;-86
2021/12/08 00:03:18;;;;;;;3.55;1.77;;;3.10;81.80;;;-151.14;100.00;62537.16;4042567;34;20017;-85
2021/12/08 00:05:45;;;;;;;3.72;1.75;;;3.10;81.90;;;-151.14;100.00;62537.16;4013552;34;20013;-84
2021/12/08 00:08:15;;;;;;;3.17;2.00;;;3.10;81.80;;;-151.14;100.00;62537.16;4077692;34;20057;-85
2021/12/08 00:13:02;;;;;;;2.70;1.67;;;3.10;81.90;;;-151.14;100.00;62537.16;4056369;34;20005;-84
2021/12/08 00:13:35;;;;;;;3.63;1.92;;;3.10;81.80;;;-151.14;100.00;62537.16;4063449;34;20551;-85
2021/12/08 00:16:10;;;;;;;3.63;1.95;;;3.10;81.90;;;-151.14;100.00;62537.16;4048096;34;20270;-84
2021/12/08 00:18:37;;;;;;;3.30;2.08;;;3.10;81.80;;;-151.14;100.00;62537.16;4050697;34;20272;-84
2021/12/08 00:21:08;;;;;;;4.78;1.98;;;3.10;81.90;;;-151.14;100.00;62537.16;4030148;34;19991;-85
2021/12/08 00:23:34;;;;;;;2.80;1.77;;;3.10;81.80;;;-151.14;100.00;62537.16;4074455;34;20299;-85
2021/12/08 00:26:01;;;;;;;3.40;1.88;;;3.10;81.80;;;-151.14;100.00;62537.16;4076320;34;20012;-84
2021/12/08 00:28:27;;;;;;;3.72;1.80;;;3.10;81.90;;;-151.14;100.00;62537.16;4081688;34;19984;-86
2021/12/08 00:30:57;;;;;;;3.40;1.73;;;3.10;81.90;;;-151.14;100.00;62537.16;4076928;34;20021;-86
2021/12/08 00:33:27;;;;;;;4.13;2.00;;;3.10;81.90;;;-151.14;100.00;62537.16;4077236;34;20174;-86
2021/12/08 00:35:54;;;;;;;3.58;1.90;;;3.10;81.90;;;-151.14;100.00;62537.16;4056356;34;20014;-86
2021/12/08 00:38:21;;;;;;;3.53;2.00;;;3.10;81.80;;;-151.14;100.00;62537.16;4076114;34;20031;-85
2021/12/08 00:40:49;;;;;;;3.72;1.77;;;3.10;81.90;;;-151.14;100.00;62537.16;4076322;34;20124;-86
2021/12/08 00:43:17;;;;;;;3.08;1.63;;;3.10;81.80;;;-151.14;100.00;62537.16;4030082;34;20173;-86
2021/12/08 00:45:43;;;;;;;4.10;2.30;;;3.10;81.90;;;-151.14;100.00;62537.16;4030051;34;20316;-85
2021/12/08 00:48:10;;;;;;;4.15;2.17;;;3.10;81.90;;;-151.14;100.00;62537.16;4076695;34;20012;-85
2021/12/08 00:50:38;;;;;;;3.58;1.95;;;3.10;81.90;;;-151.14;100.00;62537.16;4072391;34;20040;-86
2021/12/08 00:53:05;;;;;;;3.85;1.95;;;3.10;81.90;;;-151.14;100.00;62537.16;4051017;34;20255;-85
2021/12/08 00:55:32;;;;;;;3.40;1.98;;;3.10;82.00;;;-151.14;100.00;62537.16;4029201;34;20106;-84
2021/12/08 00:57:59;;;;;;;2.55;1.60;;;3.10;81.90;;;-151.14;100.00;62537.16;3987090;34;20297;-84
2021/12/08 01:00:51;;;;;;;3.22;1.52;;;3.10;81.80;;;-151.14;100.00;62537.16;4042001;34;20430;-85
2021/12/08 01:03:18;;;;;;;3.33;2.03;;;3.10;82.00;;;-151.14;100.00;62537.16;4067776;34;20257;-85
2021/12/08 01:05:53;;;;;;;3.40;1.83;;;3.10;81.90;;;-151.14;100.00;62537.16;4060010;34;20341;-85
2021/12/08 01:08:23;;;;;;;3.25;2.00;;;3.10;82.00;;;-151.14;100.00;62537.16;4103830;34;20334;-84
2021/12/08 01:10:52;;;;;;;3.22;1.83;;;3.10;82.00;;;-151.14;100.00;62537.16;4106172;34;20128;-85
2021/12/08 01:13:19;;;;;;;2.65;1.92;;;3.10;81.90;;;-151.14;100.00;62537.16;4084077;34;20016;-84
2021/12/08 01:15:51;;;;;;;3.00;1.90;;;3.10;81.90;;;-151.14;100.00;62537.16;4084053;34;20036;-84
2021/12/08 01:18:18;;;;;;;2.95;1.63;;;3.10;81.90;;;-151.14;100.00;62537.16;4126416;34;20256;-84
2021/12/08 01:20:45;;;;;;;4.80;2.22;;;3.10;81.90;;;-151.14;100.00;62537.16;4118445;34;20040;-85
2021/12/08 01:23:12;;;;;;;3.60;2.00;;;3.10;82.00;;;-151.14;100.00;62537.16;4052890;34;20264;-86
2021/12/08 01:25:39;;;;;;;3.17;1.77;;;3.10;82.00;;;-151.14;100.00;62537.16;4052695;34;20001;-86
2021/12/08 01:28:05;;;;;;;4.68;2.67;;;3.10;81.90;;;-151.14;100.00;62537.16;4073963;34;20451;-85
2021/12/08 01:30:32;;;;;;;3.47;2.10;;;3.10;81.90;;;-151.14;100.00;62537.16;4077884;34;20012;-85
2021/12/08 01:32:58;;;;;;;4.15;2.22;;;3.10;81.90;;;-151.14;100.00;62537.16;4057436;34;20226;-86
2021/12/08 01:35:25;;;;;;;4.55;2.15;;;3.10;82.00;;;-151.14;100.00;62537.16;4057355;34;19993;-85
2021/12/08 01:37:51;;;;;;;3.90;2.30;;;3.10;81.90;;;-151.14;100.00;62537.16;4014343;34;20435;-86
2021/12/08 01:40:19;;;;;;;4.38;2.40;;;3.10;82.00;;;-151.14;100.00;62537.16;4036498;34;20470;-86
2021/12/08 01:42:48;;;;;;;4.53;2.42;;;3.10;82.00;;;-151.14;100.00;62537.16;4080559;34;20012;-83
2021/12/08 01:48:13;;;;;;;4.03;2.20;;;3.10;82.00;;;-151.14;100.00;62537.16;4055684;34;20005;-85
2021/12/08 01:50:43;;;;;;;3.80;2.47;;;3.10;82.00;;;-151.14;100.00;62537.16;4031505;34;20152;-85
2021/12/08 01:53:09;;;;;;;4.93;2.33;;;3.10;81.90;;;-151.14;100.00;62537.16;4031598;34;20342;-85
2021/12/08 01:55:36;;;;;;;3.28;2.30;;;3.10;82.00;;;-151.14;100.00;62537.16;4031747;34;20195;-85
2021/12/08 01:58:06;;;;;;;3.83;1.90;;;3.10;81.90;;;-151.14;100.00;62537.16;4048618;34;20072;-84
2021/12/08 02:00:41;;;;;;;3.42;1.98;;;3.10;81.90;;;-151.14;100.00;62537.16;4083425;34;20430;-85
2021/12/08 02:03:08;;;;;;;3.30;2.05;;;3.10;82.00;;;-151.14;100.00;62537.16;4054440;34;20013;-85
2021/12/08 02:05:35;;;;;;;3.80;2.10;;;3.10;82.10;;;-151.14;100.00;62537.16;4052369;34;20021;-85
2021/12/08 02:08:02;;;;;;;3.25;2.00;;;3.10;82.10;;;-151.14;100.00;62537.16;4055546;34;20334;-85
2021/12/08 02:10:29;;;;;;;3.72;2.30;;;3.10;82.10;;;-151.14;100.00;62537.16;4034919;34;20000;-86
2021/12/08 02:12:55;;;;;;;3.90;2.30;;;3.10;82.00;;;-151.14;100.00;62537.16;4037274;34;20140;-83
2021/12/08 02:15:22;;;;;;;4.30;2.45;;;3.10;81.90;;;-151.14;100.00;62537.16;4083100;34;20439;-84
2021/12/08 02:17:53;;;;;;;2.60;2.00;;;3.10;82.00;;;-151.14;100.00;62537.16;4055487;34;20455;-84
2021/12/08 02:20:22;;;;;;;3.22;1.80;;;3.10;82.00;;;-151.14;100.00;62537.16;4073511;34;19989;-84
2021/12/08 02:22:48;;;;;;;3.33;2.10;;;3.10;81.90;;;-151.14;100.00;62537.16;4052381;34;20000;-84
2021/12/08 02:25:21;;;;;;;3.35;2.13;;;3.10;82.10;;;-151.14;100.00;62537.16;4052808;34;20048;-85
2021/12/08 02:27:48;;;;;;;3.30;2.00;;;3.10;82.00;;;-151.14;100.00;62537.16;4036473;34;19997;-84
2021/12/08 02:30:22;;;;;;;2.85;1.83;;;3.10;82.00;;;-151.14;100.00;62537.16;4083057;34;20012;-85
2021/12/08 02:46:44;;;;;;;3.30;2.20;;;3.10;82.00;;;-151.14;100.00;62537.16;4051961;34;20283;-85
2021/12/08 02:49:10;;;;;;;2.90;2.00;;;3.10;82.00;;;-151.14;100.00;62537.16;4076482;34;20415;-85
2021/12/08 02:51:37;;;;;;;2.97;1.77;;;3.10;82.10;;;-151.14;100.00;62537.16;4068351;34;20001;-85
2021/12/08 02:54:04;;;;;;;3.25;2.13;;;3.00;82.10;;;-151.14;100.00;62537.16;4013540;34;20328;-85
2021/12/08 02:56:30;;;;;;;3.83;1.65;;;3.10;82.10;;;-151.14;100.00;62537.16;4034610;34;20154;-85
2021/12/08 02:58:58;;;;;;;3.72;1.75;;;3.10;82.20;;;-151.14;100.00;62537.16;4056487;34;20048;-85
2021/12/08 03:01:25;;;;;;;3.22;1.88;;;3.10;82.10;;;-151.14;100.00;62537.16;4078111;34;20063;-86
2021/12/08 03:03:51;;;;;;;3.60;2.03;;;3.10;82.00;;;-151.14;100.00;62537.16;4074769;34;20060;-85
2021/12/08 03:06:18;;;;;;;4.90;2.13;;;3.10;82.20;;;-151.14;100.00;62537.16;4059584;34;20183;-84
2021/12/08 03:08:44;;;;;;;4.55;2.25;;;3.10;82.00;;;-151.14;100.00;62537.16;4082675;34;20179;-84
2021/12/08 03:11:11;;;;;;;3.22;1.95;;;3.10;82.00;;;-151.14;100.00;62537.16;4082503;34;20003;-84
2021/12/08 03:13:56;;;;;;;3.03;1.95;;;3.10;82.00;;;-151.14;100.00;62537.16;4095620;34;20013;-84
2021/12/08 03:16:22;;;;;;;2.20;1.45;;;3.10;82.00;;;-151.14;100.00;62537.16;4069635;34;20004;-84
2021/12/08 03:18:49;;;;;;;3.55;1.63;;;3.10;82.00;;;-151.14;100.00;62537.16;4053323;34;20269;-84
2021/12/08 03:21:15;;;;;;;3.42;1.95;;;3.10;82.10;;;-151.14;100.00;62537.16;4082331;34;19988;-84
2021/12/08 03:23:55;;;;;;;3.00;1.65;;;3.00;81.90;;;-151.14;100.00;62537.16;4104624;34;20031;-84
2021/12/08 03:26:28;;;;;;;3.20;1.95;;;3.10;82.10;;;-151.14;100.00;62537.16;4123521;34;20175;-85
2021/12/08 03:29:04;;;;;;;3.42;1.40;;;3.10;82.30;;;-151.14;100.00;62537.16;4083282;34;20169;-85
2021/12/08 03:31:41;;;;;;;2.60;1.70;;;3.10;82.10;;;-151.14;100.00;62537.16;4084151;34;20056;-84
2021/12/08 03:34:07;;;;;;;3.17;1.75;;;3.10;82.10;;;-151.14;100.00;62537.16;4084362;34;20269;-85
2021/12/08 03:36:34;;;;;;;2.50;1.50;;;3.10;82.20;;;-151.14;100.00;62537.16;4103643;34;20068;-84
2021/12/08 03:39:01;;;;;;;3.17;1.60;;;3.10;82.20;;;-151.14;100.00;62537.16;4082504;34;20173;-85
2021/12/08 03:41:32;;;;;;;3.80;1.45;;;3.10;82.00;;;-151.14;100.00;62537.16;4082684;34;20390;-85
2021/12/08 03:43:59;;;;;;;2.97;1.50;;;3.10;82.90;;;-151.14;100.00;62537.16;4066477;34;20184;-86
2021/12/08 03:46:28;;;;;;;2.85;1.25;;;3.10;82.10;;;-151.14;100.00;62537.16;4034241;34;20380;-86
2021/12/08 03:48:54;;;;;;;2.95;1.52;;;3.10;82.30;;;-151.14;100.00;62537.16;4034612;34;20455;-85
2021/12/08 03:51:21;;;;;;;3.38;1.80;;;3.10;82.20;;;-151.14;100.00;62537.16;4046375;34;19985;-85
2021/12/08 03:53:48;;;;;;;3.20;1.70;;;3.10;82.30;;;-151.14;100.00;62537.16;4100866;34;20146;-85
2021/12/08 03:56:14;;;;;;;2.53;1.10;;;3.10;82.40;;;-151.14;100.00;62537.16;4103487;34;20090;-85
2021/12/08 03:58:40;;;;;;;2.75;1.45;;;3.10;82.50;;;-151.14;100.00;62537.16;4082247;34;19993;-85
2021/12/08 04:01:07;;;;;;;2.63;1.45;;;3.10;82.40;;;-151.14;100.00;62537.16;4125985;34;19988;-85
2021/12/08 04:03:34;;;;;;;3.20;1.30;;;3.00;82.20;;;-151.14;100.00;62537.16;4060707;34;20225;-85
2021/12/08 04:06:07;;;;;;;2.88;1.58;;;3.10;82.30;;;-151.14;100.00;62537.16;4104301;34;20291;-83
2021/12/08 04:08:53;;;;;;;2.60;1.48;;;3.10;82.30;;;-151.14;100.00;62537.16;4076434;34;20085;-84
2021/12/08 04:11:20;;;;;;;1.85;1.15;;;3.10;82.20;;;-151.14;100.00;62537.16;4041236;34;20040;-86
2021/12/08 04:14:04;;;;;;;2.80;1.27;;;3.00;82.30;;;-151.14;100.00;62537.16;4034508;34;20096;-84
2021/12/08 04:16:40;;;;;;;2.35;1.10;;;3.10;82.20;;;-151.14;100.00;62537.16;4096303;34;20001;-85
2021/12/08 04:19:07;;;;;;;2.13;1.13;;;3.00;82.10;;;-151.14;100.00;62537.16;4120124;34;20293;-86
2021/12/08 04:21:34;;;;;;;2.28;0.90;;;3.10;82.20;;;-151.14;100.00;62537.16;4055325;34;20225;-85
2021/12/08 04:24:01;;;;;;;1.60;1.05;;;3.10;82.40;;;-151.14;100.00;62537.16;4086497;34;20116;-85
2021/12/08 04:26:51;;;;;;;2.45;1.33;;;3.10;82.20;;;-151.14;100.00;62537.16;4059928;34;20004;-84
2021/12/08 04:29:21;;;;;;;1.90;0.90;;;3.00;82.00;;;-151.14;100.00;62537.16;4061216;34;20115;-84
2021/12/08 04:31:50;;;;;;;2.03;1.00;;;3.10;82.20;;;-151.14;100.00;62537.16;4060328;34;19994;-85
2021/12/08 04:34:24;;;;;;;2.50;1.20;;;3.10;82.10;;;-151.14;100.00;62537.16;4082340;34;19992;-84
2021/12/08 04:36:53;;;;;;;2.53;1.20;;;3.10;82.20;;;-151.14;100.00;62537.16;4060797;34;19996;-84
2021/12/08 04:39:39;;;;;;;2.58;1.20;;;3.00;82.20;;;-151.14;100.00;62537.16;4045855;34;20104;-84
2021/12/08 04:42:10;;;;;;;2.15;1.05;;;3.00;82.20;;;-151.14;100.00;62537.16;4051947;34;20005;-85
2021/12/08 04:44:52;;;;;;;3.85;1.17;;;3.10;82.30;;;-151.14;100.00;62537.16;4010789;34;20005;-85
2021/12/08 04:52:33;;;;;;;2.15;1.08;;;3.00;82.00;;;-151.14;100.00;62537.16;4104867;34;19997;-84
2021/12/08 05:07:02;;;;;;;2.08;1.00;;;3.10;82.40;;;-151.14;100.00;62537.16;4047248;34;20113;-84
2021/12/08 05:09:35;;;;;;;1.63;0.98;;;3.10;82.30;;;-151.14;100.00;62537.16;4108284;34;20311;-84
2021/12/08 05:12:22;;;;;;;1.67;0.80;;;3.10;82.20;;;-151.14;100.00;62537.16;4060211;34;20068;-84
2021/12/08 05:15:05;;;;;;;3.67;1.10;;;3.00;82.20;;;-151.14;100.00;62537.16;4081237;34;20062;-84
2021/12/08 05:18:04;;;;;;;1.95;0.90;;;3.00;82.30;;;-151.14;100.00;62537.16;4058691;34;20062;-84
2021/12/08 05:20:39;;;;;;;1.92;0.90;;;3.00;82.20;;;-151.14;100.00;62537.16;4092333;34;19993;-84
2021/12/08 05:23:41;;;;;;;2.25;1.10;;;3.00;82.30;;;-151.14;100.00;62537.16;4034736;34;20308;-84
2021/12/08 05:26:20;;;;;;;2.05;1.05;;;3.10;82.40;;;-151.14;100.00;62537.16;4086671;34;20272;-85
2021/12/08 05:28:48;;;;;;;1.90;0.90;;;3.00;82.30;;;-151.14;100.00;62537.16;4061183;34;20076;-84
2021/12/08 05:31:24;;;;;;;1.38;0.70;;;3.00;82.40;;;-151.14;100.00;62537.16;4059660;34;20122;-84
2021/12/08 05:33:51;;;;;;;2.00;0.90;;;3.00;82.20;;;-151.14;100.00;62537.16;4081975;34;20094;-85
2021/12/08 05:36:18;;;;;;;2.13;1.10;;;3.00;82.30;;;-151.14;100.00;62537.16;4037435;34;20061;-85
2021/12/08 05:38:45;;;;;;;1.63;0.90;;;3.10;82.40;;;-151.14;100.00;62537.16;4076224;34;20056;-85
2021/12/08 05:41:32;;;;;;;1.67;0.93;;;3.00;82.20;;;-151.14;100.00;62537.16;4076373;34;20204;-86
2021/12/08 05:43:59;;;;;;;1.38;0.90;;;3.10;82.40;;;-151.14;100.00;62537.16;4054967;34;20365;-84
2021/12/08 05:46:28;;;;;;;2.33;1.00;;;3.10;82.40;;;-151.14;100.00;62537.16;4054189;34;20108;-86
2021/12/08 05:48:55;;;;;;;2.00;1.10;;;3.00;82.30;;;-151.14;100.00;62537.16;4075834;34;20039;-86
2021/12/08 05:51:34;;;;;;;1.60;0.95;;;3.00;82.20;;;-151.14;100.00;62537.16;4073231;34;20045;-86
2021/12/08 05:54:36;;;;;;;2.58;1.13;;;3.00;82.20;;;-151.14;100.00;62537.16;4103119;34;20250;-85
2021/12/08 05:57:09;;;;;;;2.20;1.00;;;3.00;82.20;;;-151.14;100.00;62537.16;4108632;34;20547;-85
2021/12/08 05:59:37;;;;;;;2.05;1.10;;;3.00;82.40;;;-151.14;100.00;62537.16;4104905;34;20164;-85
2021/12/08 06:02:19;;;;;;;1.45;0.70;;;3.00;82.30;;;-151.14;100.00;62537.16;4108766;34;20031;-85
2021/12/08 06:04:46;;;;;;;2.22;1.23;;;3.00;82.40;;;-151.14;100.00;62537.16;4042078;34;20456;-84
2021/12/08 06:07:13;;;;;;;1.92;0.90;;;3.00;82.40;;;-151.14;100.00;62537.16;4083107;34;20107;-84
2021/12/08 06:09:40;;;;;;;2.63;1.38;;;3.00;82.30;;;-151.14;100.00;62537.16;4083154;34;20640;-84
2021/12/08 06:12:08;;;;;;;2.03;1.17;;;3.00;82.40;;;-151.14;100.00;62537.16;4104814;34;20327;-85
2021/12/08 06:14:35;;;;;;;1.55;1.00;;;3.00;82.30;;;-151.14;100.00;62537.16;4105340;34;20158;-83
2021/12/08 06:17:09;;;;;;;2.20;1.33;;;3.00;82.40;;;-151.14;100.00;62537.16;4039210;34;20019;-83
2021/12/08 06:19:40;;;;;;;2.55;1.40;;;3.00;82.30;;;-151.14;100.00;62537.16;4061959;34;20315;-85
2021/12/08 06:22:07;;;;;;;1.92;1.20;;;3.00;82.40;;;-151.14;100.00;62537.16;4061535;34;20238;-84
2021/12/08 06:24:33;;;;;;;2.55;1.20;;;3.00;82.30;;;-151.14;100.00;62537.16;4056668;34;20214;-85
2021/12/08 06:27:00;;;;;;;2.15;1.23;;;3.00;82.30;;;-151.14;100.00;62537.16;4056296;34;20003;-84
2021/12/08 06:29:27;;;;;;;2.20;1.15;;;3.00;82.40;;;-151.14;100.00;62537.16;4056680;34;20163;-84
2021/12/08 06:31:57;;;;;;;2.47;1.10;;;3.00;82.30;;;-151.14;100.00;62537.16;4065497;34;20261;-85
2021/12/08 06:34:25;;;;;;;2.95;1.15;;;3.00;82.40;;;-151.14;100.00;62537.16;4072916;34;20164;-85
2021/12/08 06:37:24;;;;;;;2.08;1.10;;;3.00;82.30;;;-151.14;100.00;62537.16;4077566;34;20073;-83
2021/12/08 06:40:10;;;;;;;1.85;1.15;;;3.00;82.20;;;-151.14;100.00;62537.16;4058476;34;20080;-85
2021/12/08 06:42:38;;;;;;;2.58;1.35;;;3.00;82.10;;;-151.14;100.00;62537.16;4100118;34;20129;-85
2021/12/08 06:45:13;;;;;;;2.15;1.58;;;3.00;82.20;;;-151.14;100.00;62537.16;4014176;34;20099;-85
2021/12/08 06:47:41;;;;;;;3.28;1.50;;;3.10;82.40;;;-151.14;100.00;62537.16;4096202;34;20239;-86
2021/12/08 06:50:24;;;;;;;3.10;1.48;;;3.00;82.40;;;-151.14;100.00;62537.16;4078185;34;20197;-86
2021/12/08 06:52:51;;;;;;;2.72;1.55;;;3.10;82.40;;;-151.14;100.00;62537.16;4076937;34;19996;-86
2021/12/08 06:55:19;;;;;;;2.63;1.73;;;3.10;82.30;;;-151.14;100.00;62537.16;4035007;34;20323;-86
2021/12/08 06:58:14;;;;;;;2.38;1.50;;;3.10;82.30;;;-151.14;100.00;62537.16;4077221;34;20335;-85
2021/12/08 07:03:50;;;;;;;2.20;1.40;;;3.10;82.20;;;-151.14;100.00;62537.16;4071914;34;20309;-85
2021/12/08 07:06:42;;;;;;;2.63;1.67;;;3.00;82.30;;;-151.14;100.00;62537.16;4038212;34;20248;-86
2021/12/08 07:09:23;;;;;;;2.50;1.45;;;3.10;82.30;;;-151.14;100.00;62537.16;4099605;34;20031;-85
2021/12/08 07:11:53;;;;;;;2.35;1.42;;;3.10;82.30;;;-151.14;100.00;62537.16;4084505;34;20024;-85
2021/12/08 07:14:20;;;;;;;2.72;1.42;;;3.10;82.30;;;-151.14;100.00;62537.16;4060638;34;20211;-84
2021/12/08 07:16:50;;;;;;;4.65;2.08;;;3.10;82.30;;;-151.14;100.00;62537.16;4071601;34;19988;-85
2021/12/08 07:19:39;;;;;;;2.90;1.63;;;3.10;82.40;;;-151.14;100.00;62537.16;4034839;34;20035;-85
2021/12/08 07:22:06;;;;;;;3.63;1.95;;;3.00;82.10;;;-151.14;100.00;62537.16;4043935;34;20021;-85
2021/12/08 07:24:41;;;;;;;3.30;2.08;;;3.10;82.40;;;-151.14;100.00;62537.16;4077294;34;19988;-85
2021/12/08 07:27:26;;;;;;;3.22;1.92;;;3.10;82.20;;;-151.14;100.00;62537.16;4076502;34;20200;-85
2021/12/08 07:29:53;;;;;;;3.58;1.70;;;3.10;83.20;;;-151.14;100.00;62537.16;4038490;34;20240;-85
2021/12/08 07:32:34;;;;;;;2.55;1.45;;;3.00;82.10;;;-151.14;100.00;62537.16;4092011;34;20004;-85
2021/12/08 07:35:17;;;;;;;2.78;1.75;;;3.10;82.20;;;-151.14;100.00;62537.16;4041363;34;20224;-85
2021/12/08 07:37:45;;;;;;;3.03;1.48;;;3.10;82.20;;;-151.14;100.00;62537.16;4066498;34;20104;-86
2021/12/08 07:40:19;;;;;;;3.40;1.80;;;3.00;82.30;;;-151.14;100.00;62537.16;4056187;34;20254;-85
2021/12/08 07:42:55;;;;;;;3.05;1.77;;;3.10;82.30;;;-151.14;100.00;62537.16;4078542;34;20315;-86
2021/12/08 07:45:31;;;;;;;3.08;2.03;;;3.10;82.30;;;-151.14;100.00;62537.16;4058299;34;19991;-86
2021/12/08 07:47:58;;;;;;;4.38;1.67;;;3.10;82.40;;;-151.14;100.00;62537.16;4098129;34;19992;-85
2021/12/08 07:50:34;;;;;;;3.22;1.90;;;3.10;82.40;;;-151.14;100.00;62537.16;4055585;34;20301;-87
2021/12/08 07:53:01;;;;;;;3.85;2.10;;;3.10;82.30;;;-151.14;100.00;62537.16;4057580;34;20138;-85
2021/12/08 07:55:36;;;;;;;2.75;1.85;;;3.10;82.40;;;-151.14;100.00;62537.16;4056043;34;20198;-86
2021/12/08 07:58:03;;;;;;;3.90;1.98;;;3.00;82.10;;;-151.14;100.00;62537.16;4099499;34;20434;-87
2021/12/08 08:00:40;;;;;;;2.90;1.67;;;3.10;82.30;;;-151.14;100.00;62537.16;4056227;34;20239;-87
2021/12/08 08:03:08;;;;;;;3.95;1.92;;;3.10;82.30;;;-151.14;100.00;62537.16;4077791;34;20090;-87
2021/12/08 08:05:35;;;;;;;4.25;2.40;;;3.10;82.30;;;-151.14;100.00;62537.16;4034816;34;20079;-86
2021/12/08 08:08:07;;;;;;;3.28;1.88;;;3.10;82.30;;;-151.14;100.00;62537.16;4076947;34;20068;-86
2021/12/08 08:10:54;;;;;;;3.30;1.88;;;3.10;82.10;;;-151.14;100.00;62537.16;4056670;34;20139;-86
2021/12/08 08:13:21;;;;;;;2.72;1.83;;;3.10;82.40;;;-151.14;100.00;62537.16;4084617;34;20076;-86
2021/12/08 08:15:56;;;;;;;3.72;2.17;;;3.10;82.40;;;-151.14;100.00;62537.16;4071889;34;20327;-85
2021/12/08 08:18:26;;;;;;;3.57;2.23;;;3.10;82.20;;;-151.14;100.00;62537.16;4076401;34;20257;-86
2021/12/08 08:20:58;;;;;;;3.95;2.00;;;3.10;82.20;;;-151.14;100.00;62537.16;4056984;34;19985;-86
2021/12/08 08:23:27;;;;;;;3.58;2.13;;;3.10;82.20;;;-151.14;100.00;62537.16;4034715;34;19996;-86
2021/12/08 08:25:55;;;;;;;3.40;2.15;;;3.10;82.30;;;-151.14;100.00;62537.16;4055937;34;20221;-86
2021/12/08 08:28:21;;;;;;;3.20;2.30;;;3.10;82.30;;;-151.14;100.00;62537.16;4033593;34;20587;-86
2021/12/08 08:31:06;;;;;;;4.10;2.28;;;3.10;82.30;;;-151.14;100.00;62537.16;4056833;34;20456;-85
2021/12/08 08:33:34;;;;;;;3.30;2.10;;;3.10;82.10;;;-151.14;100.00;62537.16;4056015;34;20255;-84
2021/12/08 08:36:06;;;;;;;4.00;2.33;;;3.10;82.10;;;-151.14;100.00;62537.16;4077737;34;20093;-85
2021/12/08 08:38:40;;;;;;;4.22;2.60;;;3.10;82.10;;;-151.14;100.00;62537.16;4034320;34;20169;-85
2021/12/08 08:41:48;;;;;;;3.60;2.30;;;3.10;82.10;;;-151.14;100.00;62537.16;4055917;34;19985;-85
2021/12/08 08:44:30;;;;;;;4.43;2.40;;;3.10;82.10;;;-151.14;100.00;62537.16;4098004;34;20000;-85
2021/12/08 08:46:57;;;;;;;6.75;4.15;;;3.10;82.20;;;-151.14;100.00;62537.16;4055958;34;20061;-86
2021/12/08 08:49:31;;;;;;;9.02;2.78;;;3.10;82.10;;;-151.14;100.00;62537.16;4037233;34;20267;-86
2021/12/08 08:52:16;;;;;;;4.13;2.72;;;3.10;82.20;;;-151.14;100.00;62537.16;4034663;34;20231;-85
2021/12/08 08:54:49;;;;;;;4.70;2.83;;;3.10;82.20;;;-151.14;100.00;62537.16;4056853;34;20005;-86
2021/12/08 08:57:33;;;;;;;4.03;3.05;;;3.10;82.20;;;-151.14;100.00;62537.16;4120794;34;20148;-86
2021/12/08 09:00:25;;;;;;;3.97;2.60;;;3.10;82.20;;;-151.14;100.00;62537.16;4015534;34;20067;-86
2021/12/08 09:02:55;;;;;;;3.60;2.40;;;3.10;82.10;;;-151.14;100.00;62537.16;4077243;34;19993;-86
2021/12/08 09:05:44;;;;;;;5.38;3.10;;;3.10;82.30;;;-151.14;100.00;62537.16;4077568;34;19993;-86
2021/12/08 09:08:11;;;;;;;5.72;2.85;;;3.10;82.20;;;-151.14;100.00;62537.16;4037811;34;19993;-86
2021/12/08 09:11:06;;;;;;;5.05;3.28;;;3.10;82.10;;;-151.14;100.00;62537.16;4034162;34;19989;-87
2021/12/08 09:13:39;;;;;;;5.00;3.28;;;3.10;82.10;;;-151.14;100.00;62537.16;4056817;34;19989;-86
2021/12/08 09:16:24;;;;;;;3.50;2.60;;;3.10;82.20;;;-151.14;100.00;62537.16;4034037;34;19985;-85
2021/12/08 09:19:05;;;;;;;4.85;3.25;;;3.10;82.00;;;-151.14;100.00;62537.16;4034674;34;20311;-86
2021/12/08 09:22:00;;;;;;;4.90;3.05;;;3.20;82.10;;;-151.14;100.00;62537.16;4056453;34;20101;-86
2021/12/08 09:25:03;;;;;;;4.85;3.05;;;3.20;82.10;;;-151.14;100.00;62537.16;4076731;34;20443;-88
2021/12/08 09:27:46;;;;;;;4.18;2.95;;;3.20;82.00;;;-151.14;100.00;62537.16;4074460;34;20231;-85
2021/12/08 09:30:40;;;;;;;5.05;3.60;;;3.20;82.00;;;-151.14;100.00;62537.16;4080349;34;20012;-85
2021/12/08 09:33:15;;;;;;;6.25;3.63;;;3.10;82.00;;;-151.14;100.00;62537.16;4079733;34;20480;-85
2021/12/08 09:35:50;;;;;;;5.60;3.78;;;3.20;82.00;;;-151.14;100.00;62537.16;4052610;34;19989;-84
2021/12/08 09:38:45;;;;;;;5.22;3.42;;;3.20;81.90;;;-151.14;100.00;62537.16;4072932;34;20364;-86
2021/12/08 09:41:40;;;;;;;4.50;3.38;;;3.10;81.90;;;-151.14;100.00;62537.16;4073672;34;20509;-86
2021/12/08 09:44:18;;;;;;;6.40;3.70;;;3.10;81.90;;;-151.14;100.00;62537.16;4030888;34;19992;-86
2021/12/08 09:46:47;;;;;;;4.93;3.50;;;3.20;81.90;;;-151.14;100.00;62537.16;4031080;34;20032;-86
2021/12/08 09:49:23;;;;;;;5.75;3.53;;;3.10;81.90;;;-151.14;100.00;62537.16;4031193;34;20028;-84
2021/12/08 09:51:52;;;;;;;5.70;3.55;;;3.20;81.90;;;-151.14;100.00;62537.16;3994054;34;20005;-85
2021/12/08 09:54:19;;;;;;;7.10;3.60;;;3.20;81.90;;;-151.14;100.00;62537.16;4060504;34;20320;-86
2021/12/08 09:56:48;;;;;;;4.95;3.75;;;3.20;81.80;;;-151.14;100.00;62537.16;4078169;34;20000;-85
2021/12/08 09:59:16;;;;;;;6.30;4.05;;;3.20;81.70;;;-151.14;100.00;62537.16;4058188;34;20200;-85
2021/12/08 10:01:43;;;;;;;5.43;4.22;;;3.20;81.70;;;-151.14;100.00;62537.16;4056915;34;20001;-85
2021/12/08 10:04:12;;;;;;;4.72;3.60;;;3.20;81.70;;;-151.14;100.00;62537.16;4078657;34;20001;-84
2021/12/08 10:06:41;;;;;;;5.78;3.70;;;3.20;81.60;;;-151.14;100.00;62537.16;4077691;34;19993;-84
2021/12/08 10:09:08;;;;;;;5.53;4.07;;;3.20;81.50;;;-151.14;100.00;62537.16;4056597;34;20184;-84
2021/12/08 10:11:38;;;;;;;5.20;3.78;;;3.20;81.60;;;-151.14;100.00;62537.16;4056957;34;20287;-84
2021/12/08 10:14:05;;;;;;;4.72;3.05;;;3.20;81.50;;;-151.14;100.00;62537.16;4058160;34;20008;-85
2021/12/08 10:16:32;;;;;;;4.85;3.88;;;3.20;81.50;;;-151.14;100.00;62537.16;4035405;34;20571;-86
2021/12/08 10:18:59;;;;;;;5.18;3.80;;;3.30;81.60;;;-151.14;100.00;62537.16;4057994;34;20021;-85
2021/12/08 10:21:39;;;;;;;5.55;3.72;;;3.20;81.40;;;-151.14;100.00;62537.16;4057069;34;20052;-85
2021/12/08 10:24:28;;;;;;;6.72;4.43;;;3.20;81.40;;;-151.14;100.00;62537.16;4057912;34;19993;-84
2021/12/08 10:27:08;;;;;;;6.28;4.20;;;3.20;81.40;;;-151.14;100.00;62537.16;4078177;34;20036;-85
2021/12/08 10:29:35;;;;;;;5.85;4.00;;;3.20;81.50;;;-151.14;100.00;62537.16;4057905;34;20016;-85
2021/12/08 10:32:02;;;;;;;6.70;4.55;;;3.20;81.40;;;-151.14;100.00;62537.16;4078630;34;20075;-86
2021/12/08 10:34:47;;;;;;;6.15;4.03;;;3.20;81.50;;;-151.14;100.00;62537.16;4057034;34;20001;-84
2021/12/08 10:37:20;;;;;;;6.75;4.72;;;3.20;81.50;;;-151.14;100.00;62537.16;4041124;34;20063;-85
2021/12/08 10:39:52;;;;;;;5.85;4.25;;;3.20;81.50;;;-151.14;100.00;62537.16;4058146;34;20088;-85
2021/12/08 10:42:19;;;;;;;6.57;4.15;;;3.20;81.50;;;-151.14;100.00;62537.16;4077834;34;20036;-87
2021/12/08 10:45:15;;;;;;;6.35;4.57;;;3.20;81.40;;;-151.14;100.00;62537.16;4079066;34;20435;-84
2021/12/08 10:47:51;;;;;;;7.22;4.47;;;3.20;81.60;;;-151.14;100.00;62537.16;4002629;34;20089;-85
2021/12/08 10:56:24;;;;;;;5.30;4.32;;;3.20;81.50;;;-151.14;100.00;62537.16;4103358;34;20221;-85
2021/12/08 10:58:52;;;;;;;6.28;4.47;;;3.20;81.60;;;-151.14;100.00;62537.16;4059024;34;19989;-84
2021/12/08 11:01:24;;;;;;;6.32;4.38;;;3.10;81.70;;;-151.14;100.00;62537.16;4036383;34;20388;-85
2021/12/08 11:04:05;;;;;;;6.85;5.38;;;3.20;81.70;;;-151.14;100.00;62537.16;4056752;34;20657;-86
2021/12/08 11:06:33;;;;;;;5.97;4.40;;;3.20;81.70;;;-151.14;100.00;62537.16;4056954;34;19985;-86
2021/12/08 11:09:00;;;;;;;6.45;4.43;;;3.20;81.70;;;-151.14;100.00;62537.16;4056617;34;20130;-84
2021/12/08 11:11:32;;;;;;;8.02;5.75;;;3.20;81.80;;;-151.14;100.00;62537.16;4035143;34;20005;-85